Fourcroy — VMQ6160 — position and weather

sailwx.info

Track history (hours):
 
Tides and Currents Weather Stations Pressure Air Temp Water Temp Dewpoint Dewpoint Depression Visibility Wind Speed Wind Dir Waves Ship Positions

Fourcroy

Last reported at 2015-Jul-25 03:33 UTC. Time now 2015-Aug-04 23:58 UTC.
Position S 12°16' E 130°50'.
Warning: this ship's position is 10 days out of date.

Length 47 m; draft 2 m.

Type: Cargo ship. MMSI: 503338000.

Date/timePositionNaut miles runAvg speedWind from/ knotsBaromVisibWave heightAir tempDewpointWater temp
2015-Jul-25 03:33S 12°16' E 130°50'9 9.2
2015-Jul-25 02:33S 12°25' E 130°48'4 0.3
2015-Jul-24 15:33S 12°28' E 130°51'0 0.0
2015-Jul-24 14:33S 12°28' E 130°51'0 0.0
2015-Jul-24 13:33S 12°28' E 130°51'0 0.0
2015-Jul-24 12:33S 12°28' E 130°51'0 0.0
2015-Jul-24 11:34S 12°28' E 130°51'0 0.0
2015-Jul-24 10:33S 12°28' E 130°51'0 0.0
2015-Jul-24 09:33S 12°28' E 130°51'0 0.0
2015-Jul-24 08:33S 12°28' E 130°51'0 0.0
2015-Jul-24 07:33S 12°28' E 130°51'0 0.0
2015-Jul-24 06:33S 12°28' E 130°51'0 0.0
2015-Jul-24 05:33S 12°28' E 130°51'0 0.0
2015-Jul-24 04:33S 12°28' E 130°51'0 0.0
2015-Jul-24 03:33S 12°28' E 130°51'0 0.0
2015-Jul-24 02:33S 12°28' E 130°51'0 0.0
2015-Jul-24 01:33S 12°28' E 130°51'0 0.0
2015-Jul-24 00:33S 12°28' E 130°51'0 0.1
2015-Jul-23 23:31S 12°28' E 130°51'0 0.0
2015-Jul-23 22:31S 12°28' E 130°51'0 0.0
2015-Jul-23 21:31S 12°28' E 130°51'0 0.0
2015-Jul-23 20:31S 12°28' E 130°51'0 0.0
2015-Jul-23 19:31S 12°28' E 130°51'0 0.0
2015-Jul-23 18:31S 12°28' E 130°51'0 0.0
2015-Jul-23 17:31S 12°28' E 130°51'0 0.0
2015-Jul-23 16:31S 12°28' E 130°51'0 0.0
2015-Jul-23 15:31S 12°28' E 130°51'0 0.0
2015-Jul-23 14:31S 12°28' E 130°51'0 0.0
2015-Jul-23 13:31S 12°28' E 130°51'0 0.0
2015-Jul-23 12:31S 12°28' E 130°51'0 0.0
2015-Jul-23 11:31S 12°28' E 130°51'0 0.0
2015-Jul-23 10:31S 12°28' E 130°51'0 0.0
2015-Jul-23 09:31S 12°28' E 130°51'0 0.0
2015-Jul-23 08:31S 12°28' E 130°51'0 0.0
2015-Jul-23 07:31S 12°28' E 130°51'0 0.0
2015-Jul-23 06:31S 12°28' E 130°51'0 0.0
2015-Jul-23 05:31S 12°28' E 130°51'0 0.0
2015-Jul-23 04:31S 12°28' E 130°51'0 0.0
2015-Jul-23 03:31S 12°28' E 130°51'0 0.0
2015-Jul-23 02:31S 12°28' E 130°51'0 0.0
2015-Jul-23 01:31S 12°28' E 130°51'1 0.8
2015-Jul-23 00:33S 12°28' E 130°51'8 8.0
2015-Jul-22 23:33S 12°22' E 130°46'4 3.5
2015-Jul-22 22:33S 12°19' E 130°48'0 0.0
2015-Jul-22 21:33S 12°19' E 130°48'0 0.1
2015-Jul-22 20:32S 12°19' E 130°48'0 0.0
2015-Jul-22 18:20S 12°19' E 130°48'3 4.4
2015-Jul-22 17:33S 12°15' E 130°49'9 9.5
2015-Jul-22 16:33S 12°07' E 130°54'10 8.8
2015-Jul-22 15:28S 12°01' E 131°02'7 7.8
2015-Jul-22 14:33S 11°57' E 131°07'8 7.5
2015-Jul-22 13:26S 11°51' E 131°14'  
Track history (hours):
 
Tides and Currents Weather Stations Pressure Air Temp Water Temp Dewpoint Dewpoint Depression Visibility Wind Speed Wind Dir Waves Ship Positions

Fourcroy

Last reported at 2015-Jul-25 03:33 UTC. Time now 2015-Aug-04 23:58 UTC.
Position S 12°16' E 130°50'.
Warning: this ship's position is 10 days out of date.

Length 47 m; draft 2 m.

Type: Cargo ship. MMSI: 503338000.

Date/timePositionNaut miles runAvg speedWind from/ knotsBaromVisibWave heightAir tempDewpointWater temp
2015-Jul-25 03:33S 12°16' E 130°50'9 9.2
2015-Jul-25 02:33S 12°25' E 130°48'4 0.3
2015-Jul-24 15:33S 12°28' E 130°51'0 0.0
2015-Jul-24 14:33S 12°28' E 130°51'0 0.0
2015-Jul-24 13:33S 12°28' E 130°51'0 0.0
2015-Jul-24 12:33S 12°28' E 130°51'0 0.0
2015-Jul-24 11:34S 12°28' E 130°51'0 0.0
2015-Jul-24 10:33S 12°28' E 130°51'0 0.0
2015-Jul-24 09:33S 12°28' E 130°51'0 0.0
2015-Jul-24 08:33S 12°28' E 130°51'0 0.0
2015-Jul-24 07:33S 12°28' E 130°51'0 0.0
2015-Jul-24 06:33S 12°28' E 130°51'0 0.0
2015-Jul-24 05:33S 12°28' E 130°51'0 0.0
2015-Jul-24 04:33S 12°28' E 130°51'0 0.0
2015-Jul-24 03:33S 12°28' E 130°51'0 0.0
2015-Jul-24 02:33S 12°28' E 130°51'0 0.0
2015-Jul-24 01:33S 12°28' E 130°51'0 0.0
2015-Jul-24 00:33S 12°28' E 130°51'0 0.1
2015-Jul-23 23:31S 12°28' E 130°51'0 0.0
2015-Jul-23 22:31S 12°28' E 130°51'0 0.0
2015-Jul-23 21:31S 12°28' E 130°51'0 0.0
2015-Jul-23 20:31S 12°28' E 130°51'0 0.0
2015-Jul-23 19:31S 12°28' E 130°51'0 0.0
2015-Jul-23 18:31S 12°28' E 130°51'0 0.0
2015-Jul-23 17:31S 12°28' E 130°51'0 0.0
2015-Jul-23 16:31S 12°28' E 130°51'0 0.0
2015-Jul-23 15:31S 12°28' E 130°51'0 0.0
2015-Jul-23 14:31S 12°28' E 130°51'0 0.0
2015-Jul-23 13:31S 12°28' E 130°51'0 0.0
2015-Jul-23 12:31S 12°28' E 130°51'0 0.0
2015-Jul-23 11:31S 12°28' E 130°51'0 0.0
2015-Jul-23 10:31S 12°28' E 130°51'0 0.0
2015-Jul-23 09:31S 12°28' E 130°51'0 0.0
2015-Jul-23 08:31S 12°28' E 130°51'0 0.0
2015-Jul-23 07:31S 12°28' E 130°51'0 0.0
2015-Jul-23 06:31S 12°28' E 130°51'0 0.0
2015-Jul-23 05:31S 12°28' E 130°51'0 0.0
2015-Jul-23 04:31S 12°28' E 130°51'0 0.0
2015-Jul-23 03:31S 12°28' E 130°51'0 0.0
2015-Jul-23 02:31S 12°28' E 130°51'0 0.0
2015-Jul-23 01:31S 12°28' E 130°51'1 0.8
2015-Jul-23 00:33S 12°28' E 130°51'8 8.0
2015-Jul-22 23:33S 12°22' E 130°46'4 3.5
2015-Jul-22 22:33S 12°19' E 130°48'0 0.0
2015-Jul-22 21:33S 12°19' E 130°48'0 0.1
2015-Jul-22 20:32S 12°19' E 130°48'0 0.0
2015-Jul-22 18:20S 12°19' E 130°48'3 4.4
2015-Jul-22 17:33S 12°15' E 130°49'9 9.5
2015-Jul-22 16:33S 12°07' E 130°54'10 8.8
2015-Jul-22 15:28S 12°01' E 131°02'7 7.8
2015-Jul-22 14:33S 11°57' E 131°07'8 7.5
2015-Jul-22 13:26S 11°51' E 131°14'  

Dump ship's entire track history